Time;durP1;ratioP1;P1;durP2;ratioP2;P2;SDS_P1;SDS_P2;PMS_P1;PMS_P2;Temp;Humidity;BMP_temperature;BMP_pressure;BME280_temperature;BME280_humidity;BME280_pressure;Samples;Min_cycle;Max_cycle;Signal;HPM_P1;HPM_P2
2023/03/26 00:02:08;;;;;;;4.90;3.70;;;;;;;9.61;87.77;97508.47;105717;1257;74833;-22
2023/03/26 00:04:37;;;;;;;5.00;4.20;;;;;;;9.64;86.86;97509.55;105686;1256;74360;-22
2023/03/26 00:07:09;;;;;;;6.30;5.40;;;;;;;9.37;88.00;97507.04;105604;1257;61957;-22
2023/03/26 00:09:37;;;;;;;6.30;3.90;;;;;;;9.08;89.86;97502.17;105668;1257;61249;-22
2023/03/26 00:12:10;;;;;;;6.80;4.40;;;;;;;9.41;89.07;97500.59;105610;1258;74169;-23
2023/03/26 00:14:39;;;;;;;6.60;5.40;;;;;;;9.66;87.38;97497.60;105648;1259;75842;-22
2023/03/26 00:17:08;;;;;;;9.10;5.70;;;;;;;9.57;87.40;97503.00;105666;1260;74353;-22
2023/03/26 00:19:42;;;;;;;;;;;;;;;9.31;88.57;97502.16;105534;1257;61801;-22
2023/03/26 00:22:12;;;;;;;6.40;4.70;;;;;;;9.10;89.83;97501.95;105638;1256;61667;-22
2023/03/26 00:24:44;;;;;;;13.10;6.80;;;;;;;9.44;88.56;97499.63;105577;1256;74601;-23
2023/03/26 00:27:19;;;;;;;12.60;6.70;;;;;;;9.48;87.56;97504.94;105590;1260;75558;-23
2023/03/26 00:29:48;;;;;;;8.50;6.50;;;;;;;9.32;87.83;97499.11;105608;1257;73858;-22
2023/03/26 00:32:17;;;;;;;8.40;6.80;;;;;;;9.15;88.23;97500.46;105663;1258;62022;-22
2023/03/26 00:34:46;;;;;;;7.70;6.40;;;;;;;9.05;88.51;97495.90;105568;1259;61933;-22
2023/03/26 00:37:15;;;;;;;9.20;6.50;;;;;;;9.30;87.07;97494.23;105653;1257;74550;-23
2023/03/26 00:39:48;;;;;;;8.60;6.80;;;;;;;9.27;86.06;97496.79;105694;1259;75552;-22
2023/03/26 00:42:17;;;;;;;8.80;6.90;;;;;;;9.06;86.32;97500.95;105708;1254;74184;-22
2023/03/26 00:44:46;;;;;;;8.90;6.40;;;;;;;8.80;87.47;97499.38;105760;1257;61974;-22
2023/03/26 00:47:15;;;;;;;8.90;5.20;;;;;;;8.83;87.77;97502.80;105889;1253;61511;-22
2023/03/26 00:49:45;;;;;;;9.00;6.50;;;;;;;9.04;86.24;97500.80;105922;1253;74252;-23
2023/03/26 00:52:17;;;;;;;8.30;6.70;;;;;;;8.95;86.04;97497.94;105885;1254;75583;-22
2023/03/26 00:54:50;;;;;;;10.60;6.80;;;;;;;8.75;86.51;97500.24;105928;1254;74341;-22
2023/03/26 00:57:21;;;;;;;7.20;5.20;;;;;;;8.45;87.79;97493.95;105671;1253;61589;-23
2023/03/26 01:00:15;;;;;;;8.40;6.30;;;;;;;8.58;88.00;97490.48;105874;1256;61864;-24
2023/03/26 01:02:45;;;;;;;9.40;6.80;;;;;;;8.83;86.10;97488.23;105738;1254;74550;-23
2023/03/26 01:05:41;;;;;;;9.10;6.90;;;;;;;8.71;86.44;97490.88;105901;1253;75784;-23
2023/03/26 01:08:33;;;;;;;9.40;7.30;;;;;;;8.44;87.10;97492.36;105662;1257;73479;-22
2023/03/26 01:11:06;;;;;;;9.90;5.80;;;;;;;8.19;88.01;97487.90;105625;1253;63328;-23
2023/03/26 01:13:36;;;;;;;8.80;6.70;;;;;;;8.50;86.93;97483.61;105681;1253;61937;-22
2023/03/26 01:16:08;;;;;;;10.30;6.60;;;;;;;8.58;85.93;97488.20;105640;1252;73560;-23
2023/03/26 01:18:41;;;;;;;9.10;7.90;;;;;;;8.38;86.24;97484.95;105665;1259;75883;-22
2023/03/26 01:21:13;;;;;;;;;;;;;;;8.01;88.13;97484.66;105638;1254;74330;-22
2023/03/26 01:23:47;;;;;;;9.70;6.80;;;;;;;7.77;88.90;97479.44;105573;1261;61229;-24
2023/03/26 01:26:22;;;;;;;9.30;6.20;;;;;;;7.91;89.17;97485.30;105546;1254;61185;-24
2023/03/26 01:28:54;;;;;;;9.40;6.50;;;;;;;8.31;87.36;97483.34;105720;1258;74459;-22
2023/03/26 01:31:35;;;;;;;10.20;7.00;;;;;;;8.28;86.48;97483.80;105656;1254;74928;-22
2023/03/26 01:34:20;;;;;;;10.50;7.80;;;;;;;8.02;86.98;97487.67;105656;1254;73251;-22
2023/03/26 01:37:07;;;;;;;;;;;;;;;7.69;87.66;97493.17;105642;1259;61224;-23
2023/03/26 01:39:48;;;;;;;8.30;5.50;;;;;;;7.41;89.43;97502.89;105861;1256;61557;-25
2023/03/26 01:42:24;;;;;;;7.50;5.60;;;;;;;7.81;88.70;97503.96;105727;1254;74592;-25
2023/03/26 01:45:00;;;;;;;11.20;7.60;;;;;;;8.01;87.49;97502.66;105674;1259;75624;-24
2023/03/26 01:47:29;;;;;;;9.00;7.00;;;;;;;7.92;87.95;97495.89;105698;1253;73853;-25
2023/03/26 01:49:57;;;;;;;7.90;6.10;;;;;;;7.70;89.28;97494.89;105575;1254;61831;-25
2023/03/26 01:52:26;;;;;;;8.10;6.10;;;;;;;7.63;90.45;97499.50;105672;1253;61059;-25
2023/03/26 01:54:54;;;;;;;12.10;7.90;;;;;;;7.99;88.90;97503.69;105925;1253;74450;-22
2023/03/26 01:57:51;;;;;;;10.00;7.50;;;;;;;8.07;88.11;97502.46;105622;1259;75369;-22
2023/03/26 02:00:37;;;;;;;12.10;7.30;;;;;;;7.82;88.48;97501.67;105670;1254;74054;-22
2023/03/26 02:03:29;;;;;;;11.90;5.40;;;;;;;7.67;89.48;97500.66;105559;1253;62544;-22
2023/03/26 02:06:24;;;;;;;7.60;5.90;;;;;;;7.94;88.04;97504.64;105900;1254;61527;-22
2023/03/26 02:09:00;;;;;;;10.60;6.70;;;;;;;8.03;86.23;97502.66;105696;1254;74617;-23
2023/03/26 02:11:28;;;;;;;9.70;6.30;;;;;;;7.80;86.57;97506.64;105715;1258;75556;-22
2023/03/26 02:14:07;;;;;;;7.40;5.20;;;;;;;7.52;87.54;97506.66;105703;1253;73942;-22
2023/03/26 02:16:36;;;;;;;7.70;5.20;;;;;;;7.54;87.93;97510.16;105730;1253;61826;-22
2023/03/26 02:19:14;;;;;;;7.70;5.50;;;;;;;7.78;86.33;97511.18;105694;1253;61898;-22
2023/03/26 02:21:44;;;;;;;6.30;4.80;;;;;;;7.67;85.92;97513.77;105569;1253;74599;-23
2023/03/26 02:24:13;;;;;;;8.10;5.80;;;;;;;7.39;86.77;97515.10;105609;1253;76486;-22
2023/03/26 02:26:43;;;;;;;6.10;4.40;;;;;;;7.21;87.32;97514.37;105703;1254;74202;-22
2023/03/26 02:29:13;;;;;;;8.70;5.80;;;;;;;7.16;87.88;97508.41;105714;1259;61186;-22
2023/03/26 02:31:47;;;;;;;6.40;4.40;;;;;;;7.44;86.10;97511.93;105686;1259;61588;-23
2023/03/26 02:34:16;;;;;;;7.90;5.20;;;;;;;7.45;85.41;97514.77;105846;1256;74685;-22
2023/03/26 02:36:51;;;;;;;10.30;6.50;;;;;;;7.18;85.93;97522.07;105776;1253;75555;-22
2023/03/26 02:39:20;;;;;;;7.40;5.00;;;;;;;6.94;86.81;97524.45;105735;1256;74136;-22
2023/03/26 02:42:02;;;;;;;5.30;4.20;;;;;;;6.91;87.49;97523.26;105625;1253;63229;-22
2023/03/26 02:44:33;;;;;;;5.60;4.20;;;;;;;7.38;85.78;97526.34;105610;1258;61867;-22
2023/03/26 02:47:02;;;;;;;5.70;4.60;;;;;;;7.48;84.68;97528.64;105850;1253;74639;-22
2023/03/26 02:49:49;;;;;;;8.00;4.50;;;;;;;7.33;85.03;97535.89;105926;1254;75967;-22
2023/03/26 02:52:23;;;;;;;6.60;4.30;;;;;;;7.09;86.01;97540.33;105881;1256;73214;-23
2023/03/26 02:54:55;;;;;;;4.30;3.50;;;;;;;6.94;86.94;97545.81;105852;1253;63389;-23
2023/03/26 02:57:25;;;;;;;6.50;3.70;;;;;;;7.35;86.22;97551.29;105911;1256;61840;-23
2023/03/26 03:00:07;;;;;;;6.90;4.10;;;;;;;7.63;84.37;97565.15;105848;1256;74542;-23
2023/03/26 03:02:40;;;;;;;6.70;4.70;;;;;;;7.51;84.19;97564.13;105521;1259;75855;-23
2023/03/26 03:05:30;;;;;;;6.00;4.40;;;;;;;7.21;85.25;97557.32;105817;1254;73880;-23
2023/03/26 03:08:21;;;;;;;5.50;3.30;;;;;;;6.93;86.94;97557.09;105868;1254;62165;-23
2023/03/26 03:11:11;;;;;;;5.70;4.10;;;;;;;7.24;86.57;97562.21;105790;1254;61843;-23
2023/03/26 03:13:49;;;;;;;4.30;3.20;;;;;;;7.53;85.07;97561.19;105730;1254;75212;-23
2023/03/26 03:16:29;;;;;;;5.60;4.20;;;;;;;7.44;84.89;97561.52;105887;1253;75784;-23
2023/03/26 03:19:00;;;;;;;4.60;3.50;;;;;;;7.21;85.54;97556.84;105897;1254;73205;-23
2023/03/26 03:21:37;;;;;;;6.00;3.40;;;;;;;7.00;86.90;97558.39;105540;1253;63506;-23
2023/03/26 03:24:08;;;;;;;5.90;3.70;;;;;;;7.29;86.40;97559.02;105543;1253;61151;-22
2023/03/26 03:26:41;;;;;;;4.50;3.40;;;;;;;7.50;85.29;97563.41;105591;1260;75307;-23
2023/03/26 03:29:29;;;;;;;5.40;3.90;;;;;;;7.41;85.46;97566.76;105899;1256;75608;-23
2023/03/26 03:32:00;;;;;;;5.70;3.80;;;;;;;7.26;86.29;97570.17;105588;1259;73886;-22
2023/03/26 03:34:48;;;;;;;6.20;2.70;;;;;;;7.12;87.11;97576.48;105693;1259;63585;-23
2023/03/26 03:37:17;;;;;;;5.60;3.00;;;;;;;7.54;86.21;97577.13;105859;1254;61134;-22
2023/03/26 03:39:52;;;;;;;4.80;3.40;;;;;;;7.79;84.71;97576.95;105569;1254;75377;-22
2023/03/26 03:42:21;;;;;;;3.50;2.70;;;;;;;7.65;84.87;97573.40;105621;1256;74950;-22
2023/03/26 03:52:10;;;;;;;2.80;1.90;;;;;;;7.79;85.03;97575.85;102696;1292;601018;-22
2023/03/26 03:54:41;;;;;;;4.10;2.80;;;;;;;7.79;84.79;97573.84;104889;1269;61183;-21
2023/03/26 03:57:34;;;;;;;5.80;3.50;;;;;;;7.56;85.58;97573.00;105082;1270;61881;-22
2023/03/26 04:00:10;;;;;;;2.50;1.90;;;;;;;7.42;86.54;97566.80;105066;1269;73970;-22
2023/03/26 04:02:49;;;;;;;3.30;2.50;;;;;;;7.74;85.06;97569.92;104793;1272;75737;-22
2023/03/26 04:05:17;;;;;;;6.90;3.10;;;;;;;7.84;84.26;97570.08;103561;1269;2158663;-21
2023/03/26 04:07:49;;;;;;;2.90;2.50;;;;;;;7.65;84.83;97568.02;105280;1264;61355;-22
2023/03/26 04:10:23;;;;;;;5.10;2.80;;;;;;;7.47;85.65;97568.68;105212;1268;61713;-21
2023/03/26 04:13:11;;;;;;;3.10;2.10;;;;;;;7.52;86.15;97571.27;105230;1264;73571;-21
2023/03/26 04:16:00;;;;;;;3.70;2.80;;;;;;;7.90;84.15;97574.71;105183;1266;75872;-22
2023/03/26 04:18:33;;;;;;;;;;;;;;;7.93;83.79;97575.77;105647;1260;74232;-22
2023/03/26 04:21:08;;;;;;;3.20;2.60;;;;;;;7.73;84.74;97574.40;105650;1256;61186;-22
2023/03/26 04:23:37;;;;;;;2.80;2.00;;;;;;;7.58;85.67;97577.11;105583;1257;61675;-22
2023/03/26 04:26:16;;;;;;;3.90;2.30;;;;;;;7.67;86.44;97574.59;105643;1258;74560;-22
2023/03/26 04:29:03;;;;;;;2.80;2.50;;;;;;;8.06;84.72;97572.30;105348;1264;75771;-22
2023/03/26 04:31:38;;;;;;;5.10;2.50;;;;;;;7.94;84.76;97572.05;105470;1256;73910;-22
2023/03/26 04:34:13;;;;;;;3.30;2.50;;;;;;;7.71;85.91;97579.25;105548;1263;61653;-22
2023/03/26 04:36:53;;;;;;;3.80;1.90;;;;;;;7.52;87.35;97578.02;105338;1256;61137;-22
2023/03/26 04:39:27;;;;;;;5.20;2.90;;;;;;;7.82;86.43;97581.85;105522;1257;74651;-22
2023/03/26 04:42:32;;;;;;;2.60;1.90;;;;;;;7.94;85.35;97586.06;105147;1274;74885;-22
2023/03/26 04:45:21;;;;;;;4.00;3.00;;;;;;;7.80;85.93;97587.33;105573;1257;74196;-22
2023/03/26 04:47:57;;;;;;;2.30;2.10;;;;;;;7.47;87.20;97585.36;105499;1257;61969;-24
2023/03/26 04:50:25;;;;;;;3.00;2.60;;;;;;;7.49;87.78;97584.18;105567;1261;61107;-24
2023/03/26 04:52:55;;;;;;;4.90;2.40;;;;;;;7.94;86.16;97579.52;105248;1264;72778;-24
2023/03/26 04:55:54;;;;;;;3.00;2.50;;;;;;;7.97;84.78;97580.25;105293;1257;74597;-24
2023/03/26 04:58:43;;;;;;;7.20;3.10;;;;;;;7.78;85.49;97579.42;105531;1258;73432;-24
2023/03/26 05:01:15;;;;;;;4.20;2.30;;;;;;;7.66;85.99;97581.71;105529;1257;61478;-25
2023/03/26 05:03:45;;;;;;;3.60;2.20;;;;;;;7.86;85.93;97583.87;105618;1260;61168;-22
2023/03/26 05:06:15;;;;;;;2.90;2.20;;;;;;;8.26;83.96;97587.77;105642;1258;74571;-22
2023/03/26 05:08:43;;;;;;;3.80;2.20;;;;;;;8.32;83.05;97582.33;105668;1261;75597;-22
2023/03/26 05:11:20;;;;;;;3.50;2.40;;;;;;;8.10;83.48;97584.76;105645;1257;73996;-22
2023/03/26 05:13:48;;;;;;;3.90;2.20;;;;;;;7.91;84.18;97584.48;105643;1257;61950;-23
2023/03/26 05:16:17;;;;;;;2.80;2.20;;;;;;;7.91;84.78;97588.95;105554;1258;61843;-23
2023/03/26 05:19:05;;;;;;;2.60;2.00;;;;;;;8.25;83.26;97588.48;105649;1257;74197;-23
2023/03/26 05:21:35;;;;;;;4.50;3.10;;;;;;;8.25;82.84;97597.71;105425;1258;75831;-22
2023/03/26 05:24:09;;;;;;;3.70;2.50;;;;;;;8.06;83.30;97592.75;105510;1258;74028;-22
2023/03/26 05:26:38;;;;;;;2.70;2.20;;;;;;;7.98;83.93;97594.36;105528;1259;61863;-22
2023/03/26 05:29:06;;;;;;;2.20;1.70;;;;;;;7.85;84.81;97600.18;105577;1261;61844;-22
2023/03/26 05:31:41;;;;;;;2.50;1.90;;;;;;;8.41;82.74;97599.61;105617;1258;74460;-22
2023/03/26 05:34:10;;;;;;;5.50;2.20;;;;;;;8.73;80.61;97604.87;105475;1263;75763;-22
2023/03/26 05:36:42;;;;;;;4.10;2.20;;;;;;;8.61;80.70;97601.76;105504;1257;74167;-22
2023/03/26 05:39:32;;;;;;;3.50;2.20;;;;;;;8.48;81.63;97606.11;105542;1257;61571;-23
2023/03/26 05:42:44;;;;;;;3.10;2.20;;;;;;;8.11;82.86;97605.09;105597;1259;61930;-22
2023/03/26 05:45:30;;;;;;;3.70;1.90;;;;;;;8.12;83.33;97612.20;105550;1257;74457;-23
2023/03/26 05:48:00;;;;;;;3.50;1.80;;;;;;;8.65;81.73;97617.59;105672;1261;75854;-23
2023/03/26 05:50:29;;;;;;;4.30;2.10;;;;;;;8.84;80.48;97620.15;105518;1263;74212;-23
2023/03/26 05:53:08;;;;;;;2.90;2.00;;;;;;;8.78;81.12;97625.09;105546;1256;62080;-23
2023/03/26 05:55:58;;;;;;;4.20;1.80;;;;;;;8.58;81.79;97622.59;105624;1260;61654;-23
2023/03/26 05:58:36;;;;;;;2.60;1.80;;;;;;;8.34;82.08;97623.61;105417;1257;74192;-23
2023/03/26 06:01:24;;;;;;;1.50;1.40;;;;;;;8.65;81.31;97616.38;105388;1260;75861;-23
2023/03/26 06:04:22;;;;;;;3.60;2.10;;;;;;;9.25;80.13;97626.88;105444;1261;73761;-23
2023/03/26 06:07:15;;;;;;;3.20;1.80;;;;;;;9.22;79.39;97621.50;105435;1261;61934;-22
2023/03/26 06:09:50;;;;;;;3.30;2.10;;;;;;;9.10;80.43;97623.48;105646;1260;61717;-22
2023/03/26 06:12:20;;;;;;;4.10;2.40;;;;;;;8.94;80.72;97622.45;105606;1261;74459;-22
2023/03/26 06:14:55;;;;;;;4.20;2.40;;;;;;;8.86;81.76;97623.69;105483;1264;75818;-23
2023/03/26 06:17:35;;;;;;;3.60;2.30;;;;;;;9.06;80.36;97620.40;105426;1258;74256;-23
2023/03/26 06:20:14;;;;;;;4.80;1.80;;;;;;;9.21;79.06;97616.23;105362;1257;61934;-23
2023/03/26 06:22:47;;;;;;;3.00;1.60;;;;;;;9.13;81.01;97627.90;105504;1258;61841;-23
2023/03/26 06:25:21;;;;;;;5.70;2.90;;;;;;;8.95;80.74;97624.27;105495;1256;74468;-23
2023/03/26 06:28:07;;;;;;;4.20;2.40;;;;;;;8.58;81.41;97624.56;105422;1264;74833;-22
2023/03/26 06:31:02;;;;;;;4.10;2.70;;;;;;;8.71;81.66;97621.94;105335;1260;73276;-22
2023/03/26 06:33:43;;;;;;;2.90;2.30;;;;;;;9.05;80.71;97633.67;105427;1258;61641;-23
2023/03/26 06:36:13;;;;;;;3.00;2.70;;;;;;;9.04;80.44;97637.79;105419;1257;61799;-22
2023/03/26 06:38:42;;;;;;;6.00;3.50;;;;;;;8.94;81.07;97636.66;105558;1258;74370;-22
2023/03/26 06:41:12;;;;;;;4.50;2.40;;;;;;;8.84;80.96;97636.98;105658;1261;75644;-23
2023/03/26 06:43:56;;;;;;;5.00;2.70;;;;;;;8.75;81.49;97644.71;105640;1260;73857;-22
2023/03/26 06:46:47;;;;;;;4.30;2.90;;;;;;;9.23;79.22;97641.83;105574;1257;62009;-22
2023/03/26 06:49:43;;;;;;;4.30;3.00;;;;;;;9.30;78.62;97640.26;105625;1261;61860;-23
2023/03/26 06:52:54;;;;;;;5.40;3.30;;;;;;;9.06;80.11;97646.57;105132;1268;74224;-22
2023/03/26 06:55:32;;;;;;;5.00;2.80;;;;;;;8.95;79.69;97645.86;104935;1264;74987;-22
2023/03/26 06:58:30;;;;;;;3.70;2.40;;;;;;;8.82;80.62;97646.88;105404;1258;73956;-22
2023/03/26 07:01:18;;;;;;;3.20;2.60;;;;;;;9.43;79.18;97649.36;105554;1257;61764;-22
2023/03/26 07:04:06;;;;;;;6.80;3.20;;;;;;;9.69;76.99;97651.81;105513;1259;61598;-22
2023/03/26 07:06:54;;;;;;;3.30;2.80;;;;;;;9.75;78.17;97645.77;105593;1257;74389;-22
2023/03/26 07:09:42;;;;;;;3.70;3.20;;;;;;;9.57;77.84;97648.52;105509;1263;75877;-22
2023/03/26 07:12:29;;;;;;;4.10;2.90;;;;;;;9.36;78.01;97651.41;105566;1257;74195;-22
2023/03/26 07:15:35;;;;;;;4.10;2.50;;;;;;;9.58;77.92;97653.40;105483;1262;61862;-23
2023/03/26 07:18:22;;;;;;;4.70;2.90;;;;;;;9.90;77.40;97647.32;105577;1258;61646;-22
2023/03/26 07:20:52;;;;;;;3.50;2.90;;;;;;;9.88;76.69;97645.60;105597;1261;74433;-23
2023/03/26 07:23:22;;;;;;;4.70;2.80;;;;;;;9.71;77.34;97650.61;105133;1256;74762;-24
2023/03/26 07:25:58;;;;;;;2.50;2.20;;;;;;;9.59;77.48;97650.89;105583;1257;73913;-23
2023/03/26 07:28:40;;;;;;;3.60;2.80;;;;;;;9.38;76.47;97644.30;105553;1260;61707;-23
2023/03/26 07:31:56;;;;;;;3.50;2.60;;;;;;;9.37;76.49;97644.59;105530;1261;61623;-23
2023/03/26 07:34:35;;;;;;;5.10;3.00;;;;;;;9.61;75.86;97649.55;105536;1257;74326;-23
2023/03/26 07:37:22;;;;;;;3.20;2.30;;;;;;;9.70;75.73;97655.77;105305;1257;75726;-23
2023/03/26 07:40:33;;;;;;;6.00;3.80;;;;;;;9.65;76.58;97657.25;105429;1261;73966;-23
2023/03/26 07:43:47;;;;;;;3.60;2.70;;;;;;;9.55;78.42;97663.50;105501;1257;61825;-23
2023/03/26 07:46:38;;;;;;;4.60;2.80;;;;;;;9.57;77.00;97661.58;105498;1258;61628;-23
2023/03/26 07:49:28;;;;;;;3.70;2.50;;;;;;;9.85;75.42;97664.27;105392;1257;74562;-23
2023/03/26 07:52:12;;;;;;;3.60;2.70;;;;;;;9.82;74.44;97668.94;105214;1256;75872;-23
2023/03/26 07:54:55;;;;;;;4.00;2.90;;;;;;;9.72;74.52;97662.80;105531;1256;74227;-23
2023/03/26 07:57:46;;;;;;;3.40;2.20;;;;;;;9.47;76.21;97670.84;105461;1257;61040;-23
2023/03/26 08:01:15;;;;;;;2.40;2.10;;;;;;;9.42;75.82;97662.98;105538;1261;61954;-23
2023/03/26 08:04:11;;;;;;;3.50;2.80;;;;;;;9.65;76.74;97666.49;105491;1257;74630;-23
2023/03/26 08:07:32;;;;;;;3.80;2.70;;;;;;;10.53;72.14;97664.38;105247;1257;76063;-25
2023/03/26 08:10:22;;;;;;;4.20;3.00;;;;;;;10.37;71.94;97666.20;105556;1257;73233;-25
2023/03/26 08:13:19;;;;;;;4.60;2.90;;;;;;;10.50;73.20;97665.24;105524;1257;61683;-26
2023/03/26 08:15:52;;;;;;;3.60;2.50;;;;;;;10.55;71.82;97661.75;105590;1262;61826;-24
2023/03/26 08:18:34;;;;;;;4.40;3.20;;;;;;;10.52;73.55;97672.54;105589;1256;74408;-23
2023/03/26 08:21:16;;;;;;;5.50;3.70;;;;;;;10.38;71.36;97662.81;105536;1256;75795;-25
2023/03/26 08:24:10;;;;;;;4.50;3.20;;;;;;;10.07;71.69;97672.52;105465;1256;74146;-26
2023/03/26 08:26:56;;;;;;;4.80;4.00;;;;;;;10.01;73.05;97678.53;105330;1260;61762;-22
2023/03/26 08:29:48;;;;;;;6.70;2.70;;;;;;;9.83;75.09;97679.43;105304;1258;61899;-22
2023/03/26 08:32:18;;;;;;;3.60;3.20;;;;;;;10.57;72.58;97673.67;105282;1257;75382;-22
2023/03/26 08:34:47;;;;;;;5.20;3.20;;;;;;;11.29;71.76;97678.20;105216;1257;74908;-22
2023/03/26 08:37:15;;;;;;;5.30;3.00;;;;;;;11.59;68.24;97673.02;105442;1258;74350;-22
2023/03/26 08:39:44;;;;;;;4.50;3.20;;;;;;;11.46;68.17;97671.64;105218;1258;61773;-22
2023/03/26 08:42:31;;;;;;;5.40;2.90;;;;;;;11.70;68.73;97666.91;105144;1260;61888;-22
2023/03/26 08:45:09;;;;;;;3.60;3.30;;;;;;;12.01;66.01;97662.54;105646;1257;75393;-22
2023/03/26 08:48:10;;;;;;;3.90;2.90;;;;;;;12.24;65.20;97664.39;105614;1260;75701;-22
2023/03/26 08:50:41;;;;;;;3.90;2.60;;;;;;;11.94;64.96;97659.69;105196;1257;73427;-24
2023/03/26 08:53:29;;;;;;;3.80;2.90;;;;;;;11.39;65.18;97654.27;105587;1257;61154;-25
2023/03/26 08:56:25;;;;;;;3.80;3.20;;;;;;;10.95;66.97;97657.95;105581;1259;61839;-22
2023/03/26 08:59:40;;;;;;;4.30;3.50;;;;;;;10.56;69.44;97658.39;105507;1263;74388;-24
2023/03/26 09:02:32;;;;;;;4.90;3.40;;;;;;;10.22;70.38;97650.52;105203;1261;75518;-23
2023/03/26 09:05:19;;;;;;;5.70;3.60;;;;;;;10.12;70.83;97654.98;105517;1257;74126;-25
2023/03/26 09:07:48;;;;;;;3.60;2.70;;;;;;;10.16;71.09;97653.19;105366;1257;61622;-24
2023/03/26 09:10:35;;;;;;;3.80;2.30;;;;;;;10.39;69.79;97657.30;105497;1259;61683;-25
2023/03/26 09:13:52;;;;;;;3.50;2.50;;;;;;;10.86;66.64;97654.25;105293;1260;74293;-25
2023/03/26 09:16:50;;;;;;;5.30;3.20;;;;;;;10.81;68.07;97662.80;105111;1261;75821;-25
2023/03/26 09:19:24;;;;;;;3.60;2.60;;;;;;;10.84;69.50;97660.14;105359;1260;74218;-24
2023/03/26 09:22:05;;;;;;;4.30;3.40;;;;;;;10.72;69.46;97661.25;105275;1258;61610;-25
2023/03/26 09:24:55;;;;;;;3.30;2.80;;;;;;;10.70;69.97;97655.37;105459;1257;61190;-25
2023/03/26 09:27:37;;;;;;;4.50;3.00;;;;;;;10.90;69.18;97664.48;105654;1257;75364;-27
2023/03/26 09:30:25;;;;;;;5.10;3.10;;;;;;;10.92;68.56;97659.52;105454;1258;75627;-24
2023/03/26 09:33:10;;;;;;;4.20;3.40;;;;;;;10.95;69.01;97662.92;105247;1260;74124;-23
2023/03/26 09:36:16;;;;;;;7.20;3.40;;;;;;;11.19;69.63;97661.04;105565;1256;61721;-24
2023/03/26 09:38:52;;;;;;;7.00;3.00;;;;;;;11.52;67.31;97656.91;105620;1257;61873;-23
2023/03/26 09:41:38;;;;;;;4.50;2.90;;;;;;;12.02;65.83;97656.05;105227;1258;75136;-24
2023/03/26 09:44:31;;;;;;;4.10;2.70;;;;;;;12.39;65.71;97657.25;105421;1257;75995;-23
2023/03/26 09:47:09;;;;;;;4.00;2.30;;;;;;;12.64;61.93;97644.48;105219;1262;73072;-23
2023/03/26 09:50:03;;;;;;;3.70;2.60;;;;;;;12.46;62.11;97646.70;105273;1262;61176;-24
2023/03/26 10:00:35;;;;;;;3.40;2.00;;;;;;;12.80;56.87;97635.11;102720;1290;600153;-23
2023/03/26 10:03:07;;;;;;;4.90;2.10;;;;;;;12.24;60.20;97636.20;104858;1267;61542;-27
2023/03/26 10:06:05;;;;;;;3.30;2.00;;;;;;;11.93;60.89;97627.81;105029;1266;61911;-25
2023/03/26 10:09:16;;;;;;;2.70;1.90;;;;;;;11.73;60.11;97628.67;104805;1267;73590;-25
2023/03/26 10:12:18;;;;;;;2.40;1.80;;;;;;;11.99;59.80;97624.82;104918;1269;76371;-26
2023/03/26 10:15:20;;;;;;;2.10;1.80;;;;;;;12.50;60.42;97625.33;103532;1264;2194599;-25
2023/03/26 10:18:10;;;;;;;2.10;1.70;;;;;;;12.46;59.22;97621.67;105179;1268;61773;-26
2023/03/26 10:21:04;;;;;;;5.10;2.00;;;;;;;12.66;56.40;97619.88;105128;1264;61793;-25
2023/03/26 10:23:56;;;;;;;1.70;1.40;;;;;;;12.69;57.29;97624.60;104975;1264;73487;-25
2023/03/26 10:26:53;;;;;;;3.40;2.00;;;;;;;12.15;57.16;97621.05;104923;1264;76108;-24
2023/03/26 10:30:03;;;;;;;3.10;2.20;;;;;;;12.20;58.64;97625.14;105267;1263;73671;-25
2023/03/26 10:32:47;;;;;;;2.80;1.60;;;;;;;12.08;57.79;97625.28;105231;1263;61201;-28
2023/03/26 10:35:31;;;;;;;2.30;1.60;;;;;;;12.40;54.41;97620.04;105157;1268;61553;-28
2023/03/26 10:38:22;;;;;;;2.50;1.70;;;;;;;12.50;54.64;97613.15;105265;1263;74604;-24
2023/03/26 10:41:03;;;;;;;3.20;1.20;;;;;;;11.50;56.37;97617.77;105158;1266;75073;-26
2023/03/26 10:43:35;;;;;;;1.70;1.20;;;;;;;11.59;56.97;97611.81;105124;1262;74099;-26
2023/03/26 10:46:30;;;;;;;2.00;1.00;;;;;;;12.27;54.26;97610.85;105126;1266;61876;-26
2023/03/26 10:49:27;;;;;;;1.10;0.80;;;;;;;12.86;53.46;97596.39;104896;1269;61201;-26
2023/03/26 10:52:02;;;;;;;1.50;0.90;;;;;;;12.76;52.51;97598.62;104964;1269;74313;-26
2023/03/26 10:54:37;;;;;;;2.00;0.90;;;;;;;12.72;52.01;97604.27;104902;1269;75928;-24
2023/03/26 10:57:12;;;;;;;1.40;0.80;;;;;;;13.07;50.09;97603.27;105173;1264;73973;-24
2023/03/26 10:59:40;;;;;;;1.90;1.40;;;;;;;13.50;51.30;97591.60;104961;1264;61135;-25
2023/03/26 11:02:24;;;;;;;2.20;1.00;;;;;;;13.44;50.36;97600.09;105013;1269;61770;-22
2023/03/26 11:05:16;;;;;;;2.30;1.40;;;;;;;13.65;52.74;97604.32;105077;1261;73188;-22
2023/03/26 11:07:52;;;;;;;1.20;1.10;;;;;;;12.85;53.06;97589.95;105196;1261;75899;-23
2023/03/26 11:10:29;;;;;;;1.40;1.10;;;;;;;13.13;49.72;97588.52;105000;1261;74358;-24
2023/03/26 11:13:17;;;;;;;2.50;1.00;;;;;;;13.07;51.09;97586.72;104904;1265;61179;-24
2023/03/26 11:16:01;;;;;;;1.00;0.90;;;;;;;13.19;49.22;97583.57;105042;1263;61912;-24
2023/03/26 11:18:30;;;;;;;2.10;1.10;;;;;;;12.71;51.24;97581.98;105162;1260;74304;-24
2023/03/26 11:21:14;;;;;;;1.20;1.10;;;;;;;12.27;52.82;97583.89;105250;1265;75872;-24
2023/03/26 11:24:20;;;;;;;1.30;1.10;;;;;;;12.19;52.55;97581.95;105178;1264;74210;-24
2023/03/26 11:26:55;;;;;;;2.20;1.20;;;;;;;12.26;54.24;97573.02;105179;1261;61959;-24
2023/03/26 11:29:51;;;;;;;1.70;1.00;;;;;;;12.42;54.31;97573.36;104856;1265;61126;-24
2023/03/26 11:32:26;;;;;;;1.50;1.00;;;;;;;12.37;52.11;97570.10;105175;1266;74464;-24
2023/03/26 11:35:01;;;;;;;1.30;0.90;;;;;;;12.02;52.04;97566.12;105166;1269;74894;-24
2023/03/26 11:37:46;;;;;;;1.10;0.90;;;;;;;12.30;52.62;97567.25;105299;1260;74291;-24
2023/03/26 11:40:22;;;;;;;1.60;1.00;;;;;;;12.42;52.71;97556.06;105289;1257;61897;-23
2023/03/26 11:42:55;;;;;;;3.80;1.10;;;;;;;12.08;53.55;97569.12;105270;1257;61069;-24
2023/03/26 11:45:25;;;;;;;1.20;1.10;;;;;;;11.75;54.06;97569.16;105205;1257;74621;-24
2023/03/26 11:48:26;;;;;;;2.20;0.90;;;;;;;11.65;55.66;97572.45;105211;1257;75822;-24
2023/03/26 11:51:07;;;;;;;0.80;0.70;;;;;;;11.30;54.78;97564.36;105213;1257;73989;-24
2023/03/26 11:53:38;;;;;;;1.70;0.80;;;;;;;11.13;55.45;97566.70;105151;1257;61697;-23
2023/03/26 11:56:26;;;;;;;1.30;1.00;;;;;;;11.21;55.48;97561.28;105112;1260;61839;-24
2023/03/26 11:58:59;;;;;;;2.30;0.80;;;;;;;11.38;56.67;97574.41;105520;1261;74695;-23
2023/03/26 12:01:39;;;;;;;2.10;1.00;;;;;;;11.61;55.05;97573.40;105186;1264;75862;-23
2023/03/26 12:04:13;;;;;;;1.60;1.10;;;;;;;11.73;55.46;97581.89;105296;1262;74149;-23
2023/03/26 12:06:55;;;;;;;1.70;1.00;;;;;;;11.82;57.09;97580.80;105183;1257;61246;-23
2023/03/26 12:09:24;;;;;;;1.70;1.00;;;;;;;12.06;56.99;97575.76;105209;1264;61207;-23
2023/03/26 12:12:02;;;;;;;1.70;1.10;;;;;;;11.96;57.63;97577.59;105275;1257;74776;-22
2023/03/26 12:14:33;;;;;;;1.80;1.00;;;;;;;11.78;56.69;97567.30;105258;1257;75660;-23
2023/03/26 12:17:06;;;;;;;1.40;0.80;;;;;;;11.49;56.17;97565.22;105255;1257;74332;-23
2023/03/26 12:19:40;;;;;;;4.10;1.00;;;;;;;11.30;56.47;97569.02;105144;1263;61911;-22
2023/03/26 12:22:30;;;;;;;2.10;1.30;;;;;;;11.21;56.67;97566.75;105576;1253;61052;-22
2023/03/26 12:25:23;;;;;;;2.50;1.10;;;;;;;11.18;57.06;97571.15;105673;1259;73525;-23
2023/03/26 12:28:02;;;;;;;0.80;0.70;;;;;;;11.11;56.33;97574.32;105670;1254;75806;-23
2023/03/26 12:30:38;;;;;;;1.10;0.60;;;;;;;11.04;52.91;97573.91;105697;1254;74118;-23
2023/03/26 12:33:32;;;;;;;0.80;0.60;;;;;;;10.94;53.52;97576.85;105669;1260;61167;-23
2023/03/26 12:36:23;;;;;;;;;;;;;;;10.77;55.84;97583.64;105716;1258;61895;-24
2023/03/26 12:38:53;;;;;;;1.60;0.90;;;;;;;10.53;56.22;97582.55;105709;1254;74467;-23
2023/03/26 12:41:42;;;;;;;1.40;0.60;;;;;;;10.39;58.35;97581.05;105786;1254;75658;-24
2023/03/26 12:44:44;;;;;;;1.30;0.80;;;;;;;10.20;61.01;97583.73;105625;1254;74227;-24
2023/03/26 12:47:31;;;;;;;3.60;1.30;;;;;;;9.86;65.81;97593.10;105646;1253;61754;-24
2023/03/26 12:50:21;;;;;;;1.70;1.30;;;;;;;9.66;66.61;97590.80;105533;1257;61899;-23
2023/03/26 12:53:25;;;;;;;0.90;0.80;;;;;;;9.40;65.43;97574.55;105374;1254;74433;-24